Amedorf, Germany

4:54 PM CEST on April 27, 2017 (GMT +0200)
Düsternweg | | Change Station

Elev 0 ft 52.55 °N, 9.68 °E | Updated 3 minutes ago

Mostly Cloudy
Mostly Cloudy
51.1 °F
Feels Like 51.1 °F
N
0.6
Wind Variable Wind from North
Gusts 1.2 mph

Today
High -- | Low -- °F
--% Chance of Precip.
Yesterday
High -- | Low -- °F
Precip. -- in
Pressure 29.95 in
Visibility 6.2 miles
Clouds Few 5000 ft
Scattered Clouds 8000 ft
Dew Point 34 °F
Humidity 51%
Rainfall 0.00 in
Snow Depth Not available.
5:57 AM 8:41 PM
New Moon, 2% visible
METAR EDDV 271450Z 27009KT 240V310 9999 VCSH FEW050TCU SCT080 11/M03 Q1014 NOSIG
Pressure 29.95 in
Visibility 6.2 miles
Clouds Few 5000 ft
Scattered Clouds 8000 ft
Dew Point 34 °F
Humidity 51%
Rainfall 0.00 in
Snow Depth Not available.
5:57 AM 8:41 PM
New Moon, 2% visible
METAR EDDV 271450Z 27009KT 240V310 9999 VCSH FEW050TCU SCT080 11/M03 Q1014 NOSIG

Get Severe Weather Alerts

Thanks for signing up!

Be on the lookout for a verification email in your inbox.

You'll start receiving the daily forecast at 8 AM.

×

10-Day Weather Forecast

×

Almanac

Astronomy

Apr. 27, 2017 Rise Set
Actual Time
Civil Twilight
Nautical Twilight
Astronomical Twilight
Moon
Length of Visible Light
Length of Day
Tomorrow will be .
, % of the Moon is Illuminated

Today's Extremes

Country Highs Country Lows

Community

WunderPhotos

WunderBlog® & News

Nearby

Air Quality

  Air Quality AQ Index Pollutant
Not available.

Snow Depth

Station Depth Elevation

Earthquake Activity

City Distance Mag. Time & Date
Minimum magnitude displayed is 2.5.

Coastal Water Temperatures

Place Temperature

Stations

Nearby Weather Stations

Station Location Temp. Windchill Dew Point Humidity Wind Precip. Elev Updated Type